sensor_id;sensor_type;location;lat;lon;timestamp;pressure;altitude;pressure_sealevel;temperature;humidity
80927;BME280;70385;44.538;18.532;2024-03-17T00:01:04;99851.28;;;9.93;100.00
80927;BME280;70385;44.538;18.532;2024-03-17T00:03:31;99853.03;;;9.93;100.00
80927;BME280;70385;44.538;18.532;2024-03-17T00:06:00;99852.09;;;9.95;100.00
80927;BME280;70385;44.538;18.532;2024-03-17T00:08:27;99848.63;;;9.95;100.00
80927;BME280;70385;44.538;18.532;2024-03-17T00:10:54;99846.78;;;9.97;100.00
80927;BME280;70385;44.538;18.532;2024-03-17T00:13:23;99848.56;;;9.96;100.00
80927;BME280;70385;44.538;18.532;2024-03-17T00:15:50;99850.25;;;9.97;100.00
80927;BME280;70385;44.538;18.532;2024-03-17T00:18:17;99848.56;;;9.96;100.00
80927;BME280;70385;44.538;18.532;2024-03-17T00:20:43;99857.09;;;10.01;100.00
80927;BME280;70385;44.538;18.532;2024-03-17T00:23:10;99854.47;;;10.01;100.00
80927;BME280;70385;44.538;18.532;2024-03-17T00:25:38;99847.47;;;10.02;100.00
80927;BME280;70385;44.538;18.532;2024-03-17T00:28:06;99846.84;;;9.95;100.00
80927;BME280;70385;44.538;18.532;2024-03-17T00:30:32;99850.31;;;9.96;100.00
80927;BME280;70385;44.538;18.532;2024-03-17T00:32:58;99846.06;;;9.93;100.00
80927;BME280;70385;44.538;18.532;2024-03-17T00:35:28;99833.41;;;9.81;100.00
80927;BME280;70385;44.538;18.532;2024-03-17T00:38:01;99847.06;;;9.89;100.00
80927;BME280;70385;44.538;18.532;2024-03-17T00:40:30;99849.00;;;9.84;100.00
80927;BME280;70385;44.538;18.532;2024-03-17T00:42:55;99850.88;;;9.79;100.00
80927;BME280;70385;44.538;18.532;2024-03-17T00:45:21;99852.69;;;9.77;100.00
80927;BME280;70385;44.538;18.532;2024-03-17T00:47:47;99853.50;;;9.79;100.00
80927;BME280;70385;44.538;18.532;2024-03-17T00:50:16;99844.13;;;9.73;100.00
80927;BME280;70385;44.538;18.532;2024-03-17T00:52:45;99849.34;;;9.73;100.00
80927;BME280;70385;44.538;18.532;2024-03-17T00:55:10;99850.47;;;9.66;100.00
80927;BME280;70385;44.538;18.532;2024-03-17T00:57:36;99849.63;;;9.66;100.00
80927;BME280;70385;44.538;18.532;2024-03-17T01:00:04;99859.34;;;9.61;100.00
80927;BME280;70385;44.538;18.532;2024-03-17T01:02:31;99862.91;;;9.58;100.00
80927;BME280;70385;44.538;18.532;2024-03-17T01:04:57;99862.91;;;9.58;100.00
80927;BME280;70385;44.538;18.532;2024-03-17T01:07:23;99863.81;;;9.57;100.00
80927;BME280;70385;44.538;18.532;2024-03-17T01:10:13;99858.53;;;9.59;100.00
80927;BME280;70385;44.538;18.532;2024-03-17T01:12:38;99860.34;;;9.57;100.00
80927;BME280;70385;44.538;18.532;2024-03-17T01:15:08;99858.63;;;9.56;100.00
80927;BME280;70385;44.538;18.532;2024-03-17T01:17:34;99858.63;;;9.56;100.00
80927;BME280;70385;44.538;18.532;2024-03-17T01:20:00;99858.75;;;9.53;100.00
80927;BME280;70385;44.538;18.532;2024-03-17T01:22:29;99861.25;;;9.56;100.00
80927;BME280;70385;44.538;18.532;2024-03-17T01:24:55;99861.19;;;9.57;100.00
80927;BME280;70385;44.538;18.532;2024-03-17T01:27:21;99863.81;;;9.57;100.00
80927;BME280;70385;44.538;18.532;2024-03-17T01:29:46;99867.34;;;9.56;100.00
80927;BME280;70385;44.538;18.532;2024-03-17T01:32:15;99861.41;;;9.51;100.00
80927;BME280;70385;44.538;18.532;2024-03-17T01:34:41;99864.88;;;9.52;100.00
80927;BME280;70385;44.538;18.532;2024-03-17T01:37:07;99861.50;;;9.48;100.00
80927;BME280;70385;44.538;18.532;2024-03-17T01:39:33;99862.22;;;9.53;100.00
80927;BME280;70385;44.538;18.532;2024-03-17T01:41:59;99862.25;;;9.52;100.00
80927;BME280;70385;44.538;18.532;2024-03-17T01:44:27;99866.78;;;9.47;100.00
80927;BME280;70385;44.538;18.532;2024-03-17T01:46:55;99873.78;;;9.46;100.00
80927;BME280;70385;44.538;18.532;2024-03-17T01:49:22;99865.09;;;9.44;100.00
80927;BME280;70385;44.538;18.532;2024-03-17T01:51:49;99879.84;;;9.47;100.00
80927;BME280;70385;44.538;18.532;2024-03-17T01:54:15;99867.69;;;9.46;100.00
80927;BME280;70385;44.538;18.532;2024-03-17T01:56:43;99873.72;;;9.48;100.00
80927;BME280;70385;44.538;18.532;2024-03-17T01:59:12;99868.56;;;9.44;100.00
80927;BME280;70385;44.538;18.532;2024-03-17T02:01:39;99868.56;;;9.46;100.00
80927;BME280;70385;44.538;18.532;2024-03-17T02:04:06;99862.50;;;9.44;100.00
80927;BME280;70385;44.538;18.532;2024-03-17T02:06:32;99869.41;;;9.47;100.00
80927;BME280;70385;44.538;18.532;2024-03-17T02:08:59;99862.47;;;9.46;100.00
80927;BME280;70385;44.538;18.532;2024-03-17T02:11:31;99873.78;;;9.46;100.00
80927;BME280;70385;44.538;18.532;2024-03-17T02:13:59;99877.41;;;9.40;100.00
80927;BME280;70385;44.538;18.532;2024-03-17T02:16:25;99875.69;;;9.39;100.00
80927;BME280;70385;44.538;18.532;2024-03-17T02:18:55;99873.78;;;9.46;100.00
80927;BME280;70385;44.538;18.532;2024-03-17T02:21:21;99881.69;;;9.43;100.00
80927;BME280;70385;44.538;18.532;2024-03-17T02:23:48;99885.19;;;9.42;100.00
80927;BME280;70385;44.538;18.532;2024-03-17T02:26:25;99879.97;;;9.42;100.00
80927;BME280;70385;44.538;18.532;2024-03-17T02:28:50;99879.91;;;9.43;100.00
80927;BME280;70385;44.538;18.532;2024-03-17T02:31:17;99876.41;;;9.44;100.00
80927;BME280;70385;44.538;18.532;2024-03-17T02:33:43;99879.84;;;9.47;100.00
80927;BME280;70385;44.538;18.532;2024-03-17T02:36:12;99874.81;;;9.40;100.00
80927;BME280;70385;44.538;18.532;2024-03-17T02:38:41;99885.88;;;9.49;100.00
80927;BME280;70385;44.538;18.532;2024-03-17T02:41:26;99889.34;;;9.49;100.00
80927;BME280;70385;44.538;18.532;2024-03-17T02:43:57;99884.97;;;9.50;100.00
80927;BME280;70385;44.538;18.532;2024-03-17T02:46:23;99887.75;;;9.45;100.00
80927;BME280;70385;44.538;18.532;2024-03-17T02:48:51;99876.38;;;9.46;100.00
80927;BME280;70385;44.538;18.532;2024-03-17T02:51:19;99876.28;;;9.49;100.00
80927;BME280;70385;44.538;18.532;2024-03-17T02:53:47;99878.09;;;9.47;100.00
80927;BME280;70385;44.538;18.532;2024-03-17T02:56:14;99868.63;;;9.43;100.00
80927;BME280;70385;44.538;18.532;2024-03-17T02:58:45;99882.53;;;9.43;100.00
80927;BME280;70385;44.538;18.532;2024-03-17T03:01:12;99881.88;;;9.37;100.00
80927;BME280;70385;44.538;18.532;2024-03-17T03:03:40;99873.50;;;9.27;100.00
80927;BME280;70385;44.538;18.532;2024-03-17T03:06:06;99877.81;;;9.28;100.00
80927;BME280;70385;44.538;18.532;2024-03-17T03:08:38;99867.78;;;9.15;100.00
80927;BME280;70385;44.538;18.532;2024-03-17T03:11:09;99886.72;;;9.21;100.00
80927;BME280;70385;44.538;18.532;2024-03-17T03:13:41;99887.63;;;9.20;100.00
80927;BME280;70385;44.538;18.532;2024-03-17T03:16:12;99880.69;;;9.19;100.00
80927;BME280;70385;44.538;18.532;2024-03-17T03:18:42;99882.56;;;9.16;100.00
80927;BME280;70385;44.538;18.532;2024-03-17T03:21:11;99887.81;;;9.14;100.00
80927;BME280;70385;44.538;18.532;2024-03-17T03:23:38;99894.84;;;9.12;100.00
80927;BME280;70385;44.538;18.532;2024-03-17T03:26:04;99896.66;;;9.10;100.00
80927;BME280;70385;44.538;18.532;2024-03-17T03:28:35;99890.69;;;9.06;100.00
80927;BME280;70385;44.538;18.532;2024-03-17T03:31:01;99887.16;;;9.07;100.00
80927;BME280;70385;44.538;18.532;2024-03-17T03:33:27;99900.16;;;9.09;100.00
80927;BME280;70385;44.538;18.532;2024-03-17T03:35:54;99895.00;;;9.06;100.00
80927;BME280;70385;44.538;18.532;2024-03-17T03:38:21;99895.91;;;9.06;100.00
80927;BME280;70385;44.538;18.532;2024-03-17T03:40:48;99901.13;;;9.06;100.00
80927;BME280;70385;44.538;18.532;2024-03-17T03:43:14;99902.81;;;9.07;100.00
80927;BME280;70385;44.538;18.532;2024-03-17T03:45:40;99900.16;;;9.09;100.00
80927;BME280;70385;44.538;18.532;2024-03-17T03:48:07;99897.56;;;9.09;100.00
80927;BME280;70385;44.538;18.532;2024-03-17T03:50:38;99896.66;;;9.10;100.00
80927;BME280;70385;44.538;18.532;2024-03-17T03:53:04;99910.63;;;9.09;100.00
80927;BME280;70385;44.538;18.532;2024-03-17T03:55:31;99912.22;;;9.13;100.00
80927;BME280;70385;44.538;18.532;2024-03-17T03:57:57;99904.59;;;9.07;100.00
80927;BME280;70385;44.538;18.532;2024-03-17T04:00:23;99905.38;;;9.09;100.00
80927;BME280;70385;44.538;18.532;2024-03-17T04:02:51;99912.31;;;9.10;100.00
80927;BME280;70385;44.538;18.532;2024-03-17T04:05:20;99904.59;;;9.07;100.00
80927;BME280;70385;44.538;18.532;2024-03-17T04:07:47;99914.88;;;9.11;100.00
80927;BME280;70385;44.538;18.532;2024-03-17T04:10:14;99925.38;;;9.10;100.00
80927;BME280;70385;44.538;18.532;2024-03-17T04:12:41;99921.84;;;9.11;100.00
80927;BME280;70385;44.538;18.532;2024-03-17T04:15:08;99922.81;;;9.08;100.00
80927;BME280;70385;44.538;18.532;2024-03-17T04:17:36;99923.66;;;9.09;100.00
80927;BME280;70385;44.538;18.532;2024-03-17T04:20:03;99931.50;;;9.09;100.00
80927;BME280;70385;44.538;18.532;2024-03-17T04:22:30;99934.09;;;9.09;100.00
80927;BME280;70385;44.538;18.532;2024-03-17T04:24:56;99934.06;;;9.10;100.00
80927;BME280;70385;44.538;18.532;2024-03-17T04:27:26;99932.34;;;9.09;100.00
80927;BME280;70385;44.538;18.532;2024-03-17T04:29:54;99937.53;;;9.11;100.00
80927;BME280;70385;44.538;18.532;2024-03-17T04:32:21;99935.00;;;9.08;100.00
80927;BME280;70385;44.538;18.532;2024-03-17T04:34:47;99928.03;;;9.08;100.00
80927;BME280;70385;44.538;18.532;2024-03-17T04:37:13;99941.03;;;9.10;100.00
80927;BME280;70385;44.538;18.532;2024-03-17T04:39:43;99943.56;;;9.13;100.00
80927;BME280;70385;44.538;18.532;2024-03-17T04:42:14;99936.63;;;9.12;100.00
80927;BME280;70385;44.538;18.532;2024-03-17T04:44:44;99937.53;;;9.11;100.00
80927;BME280;70385;44.538;18.532;2024-03-17T04:47:11;99932.25;;;9.12;100.00
80927;BME280;70385;44.538;18.532;2024-03-17T04:49:42;99933.06;;;9.15;100.00
80927;BME280;70385;44.538;18.532;2024-03-17T04:52:12;99934.09;;;9.09;100.00
80927;BME280;70385;44.538;18.532;2024-03-17T04:54:38;99947.22;;;9.06;100.00
80927;BME280;70385;44.538;18.532;2024-03-17T04:57:04;99945.66;;;9.00;100.00
80927;BME280;70385;44.538;18.532;2024-03-17T04:59:29;99950.00;;;9.00;100.00
80927;BME280;70385;44.538;18.532;2024-03-17T05:01:56;99949.22;;;8.98;100.00
80927;BME280;70385;44.538;18.532;2024-03-17T05:04:22;99949.22;;;8.98;100.00
80927;BME280;70385;44.538;18.532;2024-03-17T05:06:48;99963.97;;;8.99;100.00
80927;BME280;70385;44.538;18.532;2024-03-17T05:09:16;99952.84;;;8.92;100.00
80927;BME280;70385;44.538;18.532;2024-03-17T05:11:42;99961.53;;;8.93;100.00
80927;BME280;70385;44.538;18.532;2024-03-17T05:14:08;99976.06;;;9.01;100.00
80927;BME280;70385;44.538;18.532;2024-03-17T05:16:35;99971.75;;;9.00;100.00
80927;BME280;70385;44.538;18.532;2024-03-17T05:19:01;99968.09;;;9.06;100.00
80927;BME280;70385;44.538;18.532;2024-03-17T05:21:27;99963.78;;;9.06;100.00
80927;BME280;70385;44.538;18.532;2024-03-17T05:23:56;99961.91;;;9.10;100.00
80927;BME280;70385;44.538;18.532;2024-03-17T05:26:25;99967.03;;;9.13;100.00
80927;BME280;70385;44.538;18.532;2024-03-17T05:28:52;99968.75;;;9.14;100.00
80927;BME280;70385;44.538;18.532;2024-03-17T05:31:19;99969.66;;;9.13;100.00
80927;BME280;70385;44.538;18.532;2024-03-17T05:33:49;99980.88;;;9.17;100.00
80927;BME280;70385;44.538;18.532;2024-03-17T05:36:15;99977.22;;;9.22;100.00
80927;BME280;70385;44.538;18.532;2024-03-17T05:38:41;99972.59;;;9.32;100.00
80927;BME280;70385;44.538;18.532;2024-03-17T05:41:08;99978.72;;;9.31;100.00
80927;BME280;70385;44.538;18.532;2024-03-17T05:43:36;99979.56;;;9.31;100.00
80927;BME280;70385;44.538;18.532;2024-03-17T05:46:08;99995.03;;;9.37;100.00
80927;BME280;70385;44.538;18.532;2024-03-17T05:48:35;99990.63;;;9.39;100.00
80927;BME280;70385;44.538;18.532;2024-03-17T05:51:09;100000.06;;;9.43;100.00
80927;BME280;70385;44.538;18.532;2024-03-17T05:53:35;100005.34;;;9.42;100.00
80927;BME280;70385;44.538;18.532;2024-03-17T05:56:03;100003.44;;;9.49;100.00
80927;BME280;70385;44.538;18.532;2024-03-17T05:58:29;100006.84;;;9.51;100.00
80927;BME280;70385;44.538;18.532;2024-03-17T06:01:01;100013.78;;;9.52;100.00
80927;BME280;70385;44.538;18.532;2024-03-17T06:03:29;100014.50;;;9.57;100.00
80927;BME280;70385;44.538;18.532;2024-03-17T06:05:55;100014.34;;;9.61;100.00
80927;BME280;70385;44.538;18.532;2024-03-17T06:08:21;100015.09;;;9.66;100.00
80927;BME280;70385;44.538;18.532;2024-03-17T06:10:50;100021.97;;;9.69;100.00
80927;BME280;70385;44.538;18.532;2024-03-17T06:13:16;100023.56;;;9.73;100.00
80927;BME280;70385;44.538;18.532;2024-03-17T06:15:46;100028.81;;;9.73;100.00
80927;BME280;70385;44.538;18.532;2024-03-17T06:18:14;100032.22;;;9.75;100.00
80927;BME280;70385;44.538;18.532;2024-03-17T06:20:44;100023.44;;;9.78;100.00
80927;BME280;70385;44.538;18.532;2024-03-17T06:23:16;100024.13;;;9.84;100.00
80927;BME280;70385;44.538;18.532;2024-03-17T06:25:44;100022.91;;;9.94;100.00
80927;BME280;70385;44.538;18.532;2024-03-17T06:28:11;100034.88;;;10.01;100.00
80927;BME280;70385;44.538;18.532;2024-03-17T06:30:41;100034.59;;;10.11;100.00
80927;BME280;70385;44.538;18.532;2024-03-17T06:33:07;100031.28;;;10.06;100.00
80927;BME280;70385;44.538;18.532;2024-03-17T06:35:36;100042.50;;;10.09;100.00
80927;BME280;70385;44.538;18.532;2024-03-17T06:38:02;100043.13;;;10.16;100.00
80927;BME280;70385;44.538;18.532;2024-03-17T06:40:28;100037.66;;;10.25;100.00
80927;BME280;70385;44.538;18.532;2024-03-17T06:42:54;100052.19;;;10.33;100.00
80927;BME280;70385;44.538;18.532;2024-03-17T06:45:21;100049.97;;;10.48;100.00
80927;BME280;70385;44.538;18.532;2024-03-17T06:47:47;100051.28;;;10.61;100.00
80927;BME280;70385;44.538;18.532;2024-03-17T06:50:14;100056.13;;;10.72;100.00
80927;BME280;70385;44.538;18.532;2024-03-17T06:52:42;100066.44;;;10.76;100.00
80927;BME280;70385;44.538;18.532;2024-03-17T06:55:08;100061.53;;;10.67;100.00
80927;BME280;70385;44.538;18.532;2024-03-17T06:57:34;100072.91;;;10.66;100.00
80927;BME280;70385;44.538;18.532;2024-03-17T07:00:03;100083.84;;;10.52;100.00
80927;BME280;70385;44.538;18.532;2024-03-17T07:02:32;100086.34;;;10.55;100.00
80927;BME280;70385;44.538;18.532;2024-03-17T07:04:58;100084.78;;;10.50;100.00
80927;BME280;70385;44.538;18.532;2024-03-17T07:07:27;100090.06;;;10.48;100.00
80927;BME280;70385;44.538;18.532;2024-03-17T07:09:53;100085.97;;;10.40;100.00
80927;BME280;70385;44.538;18.532;2024-03-17T07:12:23;100085.75;;;10.47;100.00
80927;BME280;70385;44.538;18.532;2024-03-17T07:14:55;100082.88;;;10.55;100.00
80927;BME280;70385;44.538;18.532;2024-03-17T07:17:21;100086.84;;;10.67;100.00
80927;BME280;70385;44.538;18.532;2024-03-17T07:19:48;100068.94;;;10.81;100.00
80927;BME280;70385;44.538;18.532;2024-03-17T07:22:14;100078.78;;;10.98;100.00
80927;BME280;70385;44.538;18.532;2024-03-17T07:24:40;100068.06;;;11.05;100.00
80927;BME280;70385;44.538;18.532;2024-03-17T07:27:09;100082.81;;;10.83;100.00
80927;BME280;70385;44.538;18.532;2024-03-17T07:29:39;100094.88;;;11.12;100.00
80927;BME280;70385;44.538;18.532;2024-03-17T07:32:05;100087.16;;;11.32;100.00
80927;BME280;70385;44.538;18.532;2024-03-17T07:34:32;100088.03;;;11.33;100.00
80927;BME280;70385;44.538;18.532;2024-03-17T07:36:58;100086.13;;;11.38;100.00
80927;BME280;70385;44.538;18.532;2024-03-17T07:39:29;100082.22;;;11.24;100.00
80927;BME280;70385;44.538;18.532;2024-03-17T07:41:59;100085.16;;;11.15;100.00
80927;BME280;70385;44.538;18.532;2024-03-17T07:44:25;100074.47;;;10.97;100.00
80927;BME280;70385;44.538;18.532;2024-03-17T07:46:57;100088.47;;;11.20;100.00
80927;BME280;70385;44.538;18.532;2024-03-17T07:49:22;100083.94;;;11.25;100.00
80927;BME280;70385;44.538;18.532;2024-03-17T07:51:48;100100.50;;;11.26;100.00
80927;BME280;70385;44.538;18.532;2024-03-17T07:54:14;100095.13;;;11.29;100.00
80927;BME280;70385;44.538;18.532;2024-03-17T07:56:40;100088.56;;;11.42;100.00
80927;BME280;70385;44.538;18.532;2024-03-17T07:59:06;100096.78;;;11.32;100.00
80927;BME280;70385;44.538;18.532;2024-03-17T08:01:37;100093.91;;;11.39;100.00
80927;BME280;70385;44.538;18.532;2024-03-17T08:04:04;100098.31;;;11.37;100.00
80927;BME280;70385;44.538;18.532;2024-03-17T08:06:31;100089.41;;;11.43;100.00
80927;BME280;70385;44.538;18.532;2024-03-17T08:08:57;100091.84;;;11.47;100.00
80927;BME280;70385;44.538;18.532;2024-03-17T08:11:25;100094.66;;;11.43;100.00
80927;BME280;70385;44.538;18.532;2024-03-17T08:13:52;100096.41;;;11.42;100.00
80927;BME280;70385;44.538;18.532;2024-03-17T08:16:20;100098.81;;;11.48;100.00
80927;BME280;70385;44.538;18.532;2024-03-17T08:18:55;100094.66;;;11.66;100.00
80927;BME280;70385;44.538;18.532;2024-03-17T08:21:21;100100.00;;;11.63;100.00
80927;BME280;70385;44.538;18.532;2024-03-17T08:23:49;100093.41;;;11.76;100.00
80927;BME280;70385;44.538;18.532;2024-03-17T08:26:15;100099.69;;;12.18;100.00
80927;BME280;70385;44.538;18.532;2024-03-17T08:28:41;100102.38;;;12.38;100.00
80927;BME280;70385;44.538;18.532;2024-03-17T08:31:07;100099.50;;;12.44;100.00
80927;BME280;70385;44.538;18.532;2024-03-17T08:33:33;100098.03;;;12.59;100.00
80927;BME280;70385;44.538;18.532;2024-03-17T08:36:01;100095.56;;;12.76;100.00
80927;BME280;70385;44.538;18.532;2024-03-17T08:38:29;100097.44;;;12.72;100.00
80927;BME280;70385;44.538;18.532;2024-03-17T08:40:57;100095.19;;;12.43;100.00
80927;BME280;70385;44.538;18.532;2024-03-17T08:43:24;100087.41;;;12.82;100.00
80927;BME280;70385;44.538;18.532;2024-03-17T08:45:59;100095.66;;;12.95;100.00
80927;BME280;70385;44.538;18.532;2024-03-17T08:48:27;100093.19;;;12.90;100.00
80927;BME280;70385;44.538;18.532;2024-03-17T08:50:54;100094.78;;;13.15;100.00
80927;BME280;70385;44.538;18.532;2024-03-17T08:53:24;100088.50;;;13.19;100.00
80927;BME280;70385;44.538;18.532;2024-03-17T08:55:50;100093.59;;;13.01;100.00
80927;BME280;70385;44.538;18.532;2024-03-17T08:58:17;100083.06;;;12.61;100.00
80927;BME280;70385;44.538;18.532;2024-03-17T09:00:48;100082.75;;;12.68;100.00
80927;BME280;70385;44.538;18.532;2024-03-17T09:03:14;100082.44;;;12.76;100.00
80927;BME280;70385;44.538;18.532;2024-03-17T09:05:42;100085.41;;;12.46;100.00
80927;BME280;70385;44.538;18.532;2024-03-17T09:08:22;100093.94;;;12.73;100.00
80927;BME280;70385;44.538;18.532;2024-03-17T09:10:50;100093.88;;;12.95;100.00
80927;BME280;70385;44.538;18.532;2024-03-17T09:13:24;100085.34;;;13.31;100.00
80927;BME280;70385;44.538;18.532;2024-03-17T09:15:58;100083.34;;;13.36;100.00
80927;BME280;70385;44.538;18.532;2024-03-17T09:18:28;100086.41;;;13.46;100.00
80927;BME280;70385;44.538;18.532;2024-03-17T09:21:05;100088.50;;;13.77;100.00
80927;BME280;70385;44.538;18.532;2024-03-17T09:23:32;100076.75;;;14.03;100.00
80927;BME280;70385;44.538;18.532;2024-03-17T09:26:03;100080.84;;;13.91;100.00
80927;BME280;70385;44.538;18.532;2024-03-17T09:28:30;100071.31;;;14.24;100.00
80927;BME280;70385;44.538;18.532;2024-03-17T09:30:56;100075.09;;;14.19;100.00
80927;BME280;70385;44.538;18.532;2024-03-17T09:33:24;100068.84;;;14.21;100.00
80927;BME280;70385;44.538;18.532;2024-03-17T09:36:09;100073.78;;;13.91;100.00
80927;BME280;70385;44.538;18.532;2024-03-17T09:38:44;100069.09;;;13.98;100.00
80927;BME280;70385;44.538;18.532;2024-03-17T09:41:30;100071.22;;;14.45;100.00
80927;BME280;70385;44.538;18.532;2024-03-17T09:43:57;100065.53;;;14.71;100.00
80927;BME280;70385;44.538;18.532;2024-03-17T09:46:27;100064.25;;;15.13;100.00
80927;BME280;70385;44.538;18.532;2024-03-17T09:48:56;100064.91;;;15.34;100.00
80927;BME280;70385;44.538;18.532;2024-03-17T09:51:25;100057.63;;;15.88;100.00
80927;BME280;70385;44.538;18.532;2024-03-17T09:53:52;100051.50;;;15.87;100.00
80927;BME280;70385;44.538;18.532;2024-03-17T09:56:20;100052.31;;;15.72;100.00
80927;BME280;70385;44.538;18.532;2024-03-17T09:58:51;100049.28;;;15.46;100.00
80927;BME280;70385;44.538;18.532;2024-03-17T10:01:18;100038.66;;;15.15;100.00
80927;BME280;70385;44.538;18.532;2024-03-17T10:03:53;100054.84;;;14.74;100.00
80927;BME280;70385;44.538;18.532;2024-03-17T10:06:25;100042.50;;;14.75;100.00
80927;BME280;70385;44.538;18.532;2024-03-17T10:08:54;100039.53;;;14.98;100.00
80927;BME280;70385;44.538;18.532;2024-03-17T10:11:23;100040.09;;;15.05;100.00
80927;BME280;70385;44.538;18.532;2024-03-17T10:16:36;100037.69;;;15.33;100.00
80927;BME280;70385;44.538;18.532;2024-03-17T10:21:40;100022.72;;;15.83;100.00
80927;BME280;70385;44.538;18.532;2024-03-17T10:26:41;100031.16;;;16.35;100.00
80927;BME280;70385;44.538;18.532;2024-03-17T10:29:27;100028.41;;;16.36;99.56
80927;BME280;70385;44.538;18.532;2024-03-17T10:32:13;100024.72;;;16.55;94.97
80927;BME280;70385;44.538;18.532;2024-03-17T10:34:39;100033.09;;;16.47;98.69
80927;BME280;70385;44.538;18.532;2024-03-17T10:37:17;100028.84;;;16.75;83.00
80927;BME280;70385;44.538;18.532;2024-03-17T10:39:46;100027.09;;;16.59;85.73
80927;BME280;70385;44.538;18.532;2024-03-17T10:42:26;100020.03;;;16.14;87.36
80927;BME280;70385;44.538;18.532;2024-03-17T10:44:57;100030.03;;;15.62;90.00
80927;BME280;70385;44.538;18.532;2024-03-17T10:47:24;100017.31;;;15.53;90.49
80927;BME280;70385;44.538;18.532;2024-03-17T10:49:52;100021.31;;;15.60;88.99
80927;BME280;70385;44.538;18.532;2024-03-17T10:52:23;100016.53;;;15.51;89.91
80927;BME280;70385;44.538;18.532;2024-03-17T10:54:55;100009.38;;;15.53;84.82
80927;BME280;70385;44.538;18.532;2024-03-17T11:00:05;100008.16;;;15.42;87.47
80927;BME280;70385;44.538;18.532;2024-03-17T11:02:34;100009.63;;;14.99;88.15
80927;BME280;70385;44.538;18.532;2024-03-17T11:05:07;100016.47;;;15.19;86.93
80927;BME280;70385;44.538;18.532;2024-03-17T11:07:39;100003.56;;;15.30;87.04
80927;BME280;70385;44.538;18.532;2024-03-17T11:10:23;100008.16;;;14.94;85.92
80927;BME280;70385;44.538;18.532;2024-03-17T11:12:51;100004.78;;;14.57;89.29
80927;BME280;70385;44.538;18.532;2024-03-17T11:17:49;99995.44;;;14.84;89.18
80927;BME280;70385;44.538;18.532;2024-03-17T11:20:21;99993.81;;;14.99;86.30
80927;BME280;70385;44.538;18.532;2024-03-17T11:22:57;99994.53;;;15.18;84.81
80927;BME280;70385;44.538;18.532;2024-03-17T11:25:51;99983.88;;;16.00;79.23
80927;BME280;70385;44.538;18.532;2024-03-17T11:31:41;99983.44;;;16.38;83.80
80927;BME280;70385;44.538;18.532;2024-03-17T11:36:52;99970.50;;;16.63;72.74
80927;BME280;70385;44.538;18.532;2024-03-17T11:42:18;99974.59;;;16.53;79.13
80927;BME280;70385;44.538;18.532;2024-03-17T11:44:55;99957.53;;;15.69;76.20
80927;BME280;70385;44.538;18.532;2024-03-17T11:47:21;99969.06;;;15.51;76.82
80927;BME280;70385;44.538;18.532;2024-03-17T11:49:47;99964.63;;;15.35;79.53
80927;BME280;70385;44.538;18.532;2024-03-17T11:52:15;99961.22;;;15.49;76.53
80927;BME280;70385;44.538;18.532;2024-03-17T11:54:43;99954.25;;;15.48;78.16
80927;BME280;70385;44.538;18.532;2024-03-17T11:57:15;99952.38;;;15.34;79.25
80927;BME280;70385;44.538;18.532;2024-03-17T11:59:48;99937.09;;;14.92;79.65
80927;BME280;70385;44.538;18.532;2024-03-17T12:02:19;99940.63;;;15.56;77.36
80927;BME280;70385;44.538;18.532;2024-03-17T12:04:46;99939.38;;;16.38;77.08
80927;BME280;70385;44.538;18.532;2024-03-17T12:07:17;99936.94;;;17.08;69.39
80927;BME280;70385;44.538;18.532;2024-03-17T12:09:45;99929.00;;;16.94;66.09
80927;BME280;70385;44.538;18.532;2024-03-17T12:12:23;99923.59;;;17.38;62.92
80927;BME280;70385;44.538;18.532;2024-03-17T12:14:50;99925.69;;;17.19;66.22
80927;BME280;70385;44.538;18.532;2024-03-17T12:17:22;99921.63;;;16.71;66.78
80927;BME280;70385;44.538;18.532;2024-03-17T12:19:51;99922.44;;;16.13;69.13
80927;BME280;70385;44.538;18.532;2024-03-17T12:22:19;99921.03;;;16.07;72.09
80927;BME280;70385;44.538;18.532;2024-03-17T12:24:53;99913.28;;;16.04;70.99
80927;BME280;70385;44.538;18.532;2024-03-17T12:27:24;99910.00;;;15.85;71.16
80927;BME280;70385;44.538;18.532;2024-03-17T12:29:52;99913.53;;;15.99;69.83
80927;BME280;70385;44.538;18.532;2024-03-17T12:32:20;99915.28;;;15.85;68.71
80927;BME280;70385;44.538;18.532;2024-03-17T12:34:57;99910.41;;;15.93;65.20
80927;BME280;70385;44.538;18.532;2024-03-17T12:37:27;99901.28;;;15.68;65.41
80927;BME280;70385;44.538;18.532;2024-03-17T12:40:02;99898.22;;;15.44;63.72
80927;BME280;70385;44.538;18.532;2024-03-17T12:42:32;99895.34;;;15.79;63.42
80927;BME280;70385;44.538;18.532;2024-03-17T12:45:03;99894.72;;;16.05;63.16
80927;BME280;70385;44.538;18.532;2024-03-17T12:47:32;99897.75;;;15.84;64.53
80927;BME280;70385;44.538;18.532;2024-03-17T12:50:01;99893.97;;;16.18;62.27
80927;BME280;70385;44.538;18.532;2024-03-17T12:52:33;99894.78;;;16.48;62.17
80927;BME280;70385;44.538;18.532;2024-03-17T13:01:13;99871.31;;;17.96;55.54
80927;BME280;70385;44.538;18.532;2024-03-17T13:03:39;99873.88;;;17.70;53.38
80927;BME280;70385;44.538;18.532;2024-03-17T13:06:23;99865.06;;;17.97;57.89
80927;BME280;70385;44.538;18.532;2024-03-17T13:08:53;99862.06;;;17.88;54.85
80927;BME280;70385;44.538;18.532;2024-03-17T13:11:19;99856.50;;;18.31;54.05
80927;BME280;70385;44.538;18.532;2024-03-17T13:13:48;99845.91;;;18.82;52.60
80927;BME280;70385;44.538;18.532;2024-03-17T13:16:14;99860.75;;;18.85;52.77
80927;BME280;70385;44.538;18.532;2024-03-17T13:18:43;99848.84;;;19.63;52.97